Time;durP1;ratioP1;P1;durP2;ratioP2;P2;SDS_P1;SDS_P2;PMS_P1;PMS_P2;Temp;Humidity;BMP_temperature;BMP_pressure;BME280_temperature;BME280_humidity;BME280_pressure;Samples;Min_cycle;Max_cycle;Signal;HPM_P1;HPM_P2
2021/05/06 00:10:13;;;;;;;11.93;6.40;;;;;;;6.17;100.00;100365.06;5023207;28;20065;-79
2021/05/06 00:34:33;;;;;;;12.38;7.57;;;;;;;5.81;100.00;100351.75;5002972;28;20037;-79
2021/05/06 00:36:59;;;;;;;11.98;7.05;;;;;;;5.81;100.00;100343.78;5026147;28;20045;-79
2021/05/06 00:39:32;;;;;;;10.40;6.90;;;;;;;5.81;100.00;100354.41;5023747;28;20029;-79
2021/05/06 01:04:42;;;;;;;23.27;8.88;;;;;;;5.81;100.00;100333.13;5032256;28;20080;-79
2021/05/06 01:06:37;;;;;;;17.67;9.50;;;;;;;5.74;100.00;100321.91;5026296;28;20041;-80
2021/05/06 01:09:08;;;;;;;18.20;10.05;;;;;;;5.77;100.00;100327.09;5010851;28;20660;-79
2021/05/06 01:11:41;;;;;;;23.92;10.27;;;;;;;5.68;100.00;100325.75;5023473;28;20053;-79
2021/05/06 01:14:10;;;;;;;16.83;9.60;;;;;;;5.63;100.00;100308.28;5037536;28;20034;-80
2021/05/06 01:16:36;;;;;;;20.05;11.25;;;;;;;5.80;100.00;100305.63;5006053;28;20034;-79
2021/05/06 01:19:03;;;;;;;19.80;9.60;;;;;;;5.75;100.00;100302.34;5026619;28;20040;-80
2021/05/06 01:21:28;;;;;;;14.73;9.15;;;;;;;5.65;100.00;100304.63;5010473;28;20716;-79
2021/05/06 01:23:55;;;;;;;17.67;9.50;;;;;;;5.56;100.00;100306.88;5036296;28;20739;-79
2021/05/06 01:26:33;;;;;;;15.27;10.02;;;;;;;5.56;100.00;100297.09;5017675;28;20437;-79
2021/05/06 01:29:01;;;;;;;16.00;9.90;;;;;;;5.63;100.00;100297.63;5022295;28;20053;-79
2021/05/06 01:31:32;;;;;;;16.95;9.65;;;;;;;5.57;100.00;100293.50;5023961;28;20029;-79
2021/05/06 01:34:11;;;;;;;19.25;10.73;;;;;;;5.52;100.00;100284.00;5008342;28;20033;-79
2021/05/06 01:36:51;;;;;;;15.38;10.57;;;;;;;5.66;100.00;100277.06;5025061;28;20041;-79
2021/05/06 01:57:59;;;;;;;18.02;10.23;;;;;;;5.69;100.00;100303.50;5026067;28;20021;-81
2021/05/06 02:00:33;;;;;;;14.98;8.27;;;;;;;5.77;100.00;100308.47;5004494;28;20186;-82
2021/05/06 02:03:10;;;;;;;13.90;7.40;;;;;;;5.80;100.00;100299.47;5012312;28;20062;-81
2021/05/06 02:05:38;;;;;;;14.57;7.30;;;;;;;5.68;100.00;100301.78;5024391;28;20033;-80
2021/05/06 02:08:04;;;;;;;14.40;5.60;;;;;;;5.78;100.00;100285.34;5016433;28;20044;-82
2021/05/06 02:10:35;;;;;;;11.98;6.38;;;;;;;5.75;100.00;100293.50;5016333;28;20052;-81
2021/05/06 02:13:02;;;;;;;16.80;7.53;;;;;;;5.73;100.00;100292.72;5003661;28;20034;-80
2021/05/06 02:15:33;;;;;;;13.40;6.75;;;;;;;5.70;100.00;100286.59;5011823;28;20042;-81
2021/05/06 02:18:00;;;;;;;14.73;7.13;;;;;;;5.69;100.00;100287.53;5027331;28;20126;-80
2021/05/06 02:20:27;;;;;;;17.25;7.20;;;;;;;5.69;100.00;100292.88;5017607;28;20022;-80
2021/05/06 02:22:52;;;;;;;16.92;6.90;;;;;;;5.62;100.00;100288.78;5027013;28;20037;-80
2021/05/06 02:25:20;;;;;;;15.93;7.03;;;;;;;5.77;100.00;100289.81;5013294;28;20030;-80
2021/05/06 02:27:47;;;;;;;17.45;7.30;;;;;;;5.70;100.00;100278.63;5010477;28;20495;-79
2021/05/06 02:30:13;;;;;;;16.77;6.75;;;;;;;5.64;100.00;100284.25;5026386;28;20053;-80
2021/05/06 02:32:39;;;;;;;15.00;7.50;;;;;;;5.65;100.00;100272.66;5024555;28;20105;-80
2021/05/06 02:35:05;;;;;;;17.77;7.65;;;;;;;5.62;100.00;100269.28;5025008;28;20446;-80
2021/05/06 02:37:31;;;;;;;16.25;8.40;;;;;;;5.70;100.00;100259.97;5026902;28;20729;-80
2021/05/06 02:39:57;;;;;;;13.65;7.82;;;;;;;5.82;100.00;100261.16;5022778;28;20117;-80
2021/05/06 02:42:23;;;;;;;15.15;8.13;;;;;;;5.72;100.00;100257.25;5031859;28;20022;-79
2021/05/06 02:44:48;;;;;;;15.88;7.90;;;;;;;5.65;100.00;100259.34;5036734;28;20099;-79
2021/05/06 02:47:14;;;;;;;17.00;7.32;;;;;;;5.77;100.00;100252.53;5010950;28;20045;-80
2021/05/06 02:49:47;;;;;;;15.27;8.35;;;;;;;5.85;100.00;100260.13;5020975;28;20061;-79
2021/05/06 02:52:24;;;;;;;15.40;7.07;;;;;;;5.82;100.00;100255.81;5027733;28;20032;-79
2021/05/06 02:54:57;;;;;;;17.13;6.47;;;;;;;5.90;100.00;100250.13;5007039;28;20595;-80
2021/05/06 02:57:50;;;;;;;11.48;6.57;;;;;;;5.82;100.00;100249.63;5025209;28;20037;-80
2021/05/06 03:02:59;;;;;;;63.88;19.75;;;;;;;5.81;100.00;100242.56;5026367;28;20394;-79
2021/05/06 03:05:29;;;;;;;24.92;11.63;;;;;;;5.77;100.00;100246.34;5015416;28;20032;-79
2021/05/06 03:10:36;;;;;;;11.48;6.20;;;;;;;5.84;100.00;100247.75;5024279;28;20410;-79
2021/05/06 03:13:52;;;;;;;11.57;4.60;;;;;;;5.83;100.00;100244.22;5026602;28;20087;-79
2021/05/06 03:23:55;;;;;;;6.57;4.22;;;;;;;5.86;100.00;100229.91;5040562;28;20045;-79
2021/05/06 03:26:20;;;;;;;9.57;5.25;;;;;;;5.83;100.00;100235.38;5014844;28;20470;-80
2021/05/06 03:28:54;;;;;;;11.90;5.90;;;;;;;5.82;100.00;100238.97;5002850;28;20060;-80
2021/05/06 03:42:24;;;;;;;12.32;5.60;;;;;;;5.81;100.00;100238.09;5026794;28;20086;-79
2021/05/06 04:17:26;;;;;;;34.97;14.98;;;;;;;5.61;100.00;100249.81;5018043;28;20128;-80
2021/05/06 04:39:12;;;;;;;12.73;3.88;;;;;;;5.91;100.00;100260.72;4990542;28;20056;-79
2021/05/06 04:41:50;;;;;;;10.07;4.43;;;;;;;5.90;100.00;100247.47;5022291;28;20049;-79
2021/05/06 04:54:37;;;;;;;13.48;4.95;;;;;;;5.91;100.00;100246.53;5026800;28;20065;-79
2021/05/06 05:04:54;;;;;;;8.32;4.65;;;;;;;6.14;100.00;100255.94;5021269;28;20088;-79
2021/05/06 05:07:23;;;;;;;9.77;5.40;;;;;;;6.12;100.00;100248.03;5016270;28;20033;-79
2021/05/06 05:25:46;;;;;;;9.25;5.18;;;;;;;6.27;100.00;100252.56;5018535;28;20037;-78
2021/05/06 05:28:08;;;;;;;16.73;6.43;;;;;;;6.26;100.00;100248.16;5020055;28;20057;-79
2021/05/06 05:30:38;;;;;;;10.77;5.57;;;;;;;6.26;100.00;100242.84;5028605;28;20041;-79
2021/05/06 05:33:10;;;;;;;10.52;5.30;;;;;;;6.35;100.00;100253.00;5021158;28;20025;-79
2021/05/06 05:46:46;;;;;;;16.13;6.07;;;;;;;6.67;100.00;100258.34;4971713;28;20510;-79
2021/05/06 05:56:45;;;;;;;12.07;6.20;;;;;;;6.86;100.00;100277.72;5027628;28;20018;-79
2021/05/06 05:59:11;;;;;;;11.20;6.80;;;;;;;6.84;100.00;100271.63;5028213;28;20021;-80
2021/05/06 06:01:36;;;;;;;15.05;6.55;;;;;;;6.86;100.00;100267.91;5017370;28;20107;-79
2021/05/06 06:04:02;;;;;;;18.98;7.20;;;;;;;6.85;100.00;100266.19;5016864;28;20021;-80
2021/05/06 06:06:28;;;;;;;18.75;6.60;;;;;;;6.88;100.00;100271.38;5020307;28;20033;-79
2021/05/06 06:08:53;;;;;;;14.27;6.63;;;;;;;6.89;100.00;100278.44;5027922;28;20030;-79
2021/05/06 06:11:20;;;;;;;13.63;7.18;;;;;;;7.08;100.00;100269.38;5016146;28;20557;-80
2021/05/06 06:13:48;;;;;;;13.10;7.07;;;;;;;7.12;100.00;100268.25;5030946;28;20021;-80
2021/05/06 06:16:22;;;;;;;11.65;6.30;;;;;;;7.27;100.00;100268.25;5010273;28;20643;-79
2021/05/06 06:18:53;;;;;;;14.63;6.68;;;;;;;7.39;100.00;100268.47;5024010;28;20608;-80
2021/05/06 06:23:44;;;;;;;9.73;6.60;;;;;;;7.87;100.00;100275.38;5021867;28;20105;-79
2021/05/06 06:26:10;;;;;;;10.15;6.38;;;;;;;8.21;100.00;100268.84;5002363;28;20029;-79
2021/05/06 06:28:43;;;;;;;15.52;5.82;;;;;;;8.58;99.62;100272.81;5004467;28;20026;-80
2021/05/06 06:31:17;;;;;;;16.98;7.18;;;;;;;8.46;97.92;100274.41;5030302;28;20042;-80
2021/05/06 06:33:42;;;;;;;11.15;5.78;;;;;;;8.32;97.11;100274.44;5026752;28;20647;-79
2021/05/06 06:36:08;;;;;;;11.20;6.30;;;;;;;8.22;98.38;100273.22;5004560;28;20099;-80
2021/05/06 06:38:34;;;;;;;9.05;5.35;;;;;;;8.17;99.12;100281.53;5002401;28;20080;-81
2021/05/06 06:41:00;;;;;;;16.85;6.80;;;;;;;8.09;99.10;100276.66;5025609;28;20578;-80
2021/05/06 06:43:26;;;;;;;12.63;5.90;;;;;;;8.05;99.93;100276.94;5012482;28;20034;-80
2021/05/06 06:45:51;;;;;;;12.60;6.78;;;;;;;8.01;98.66;100276.28;5026743;28;20037;-80
2021/05/06 06:48:17;;;;;;;8.82;6.07;;;;;;;7.98;98.08;100281.78;5012752;28;20649;-80
2021/05/06 06:50:43;;;;;;;14.98;6.18;;;;;;;7.95;97.55;100276.66;5002149;28;20082;-80
2021/05/06 06:53:12;;;;;;;15.90;7.50;;;;;;;7.91;98.57;100277.78;5013844;28;20026;-79
2021/05/06 06:55:37;;;;;;;13.02;6.70;;;;;;;8.02;97.87;100275.31;5024808;28;20029;-80
2021/05/06 06:58:12;;;;;;;11.70;6.82;;;;;;;8.00;98.76;100279.91;5027156;28;20635;-80
2021/05/06 07:00:41;;;;;;;11.02;7.40;;;;;;;7.97;98.68;100274.72;5026100;28;20116;-80
2021/05/06 07:03:07;;;;;;;14.45;7.10;;;;;;;8.17;98.59;100275.31;5021869;28;20044;-80
2021/05/06 07:05:34;;;;;;;19.65;9.10;;;;;;;8.18;97.91;100271.72;5024150;28;20026;-80
2021/05/06 07:08:13;;;;;;;11.27;7.28;;;;;;;8.09;98.27;100273.97;5025850;28;20048;-81
2021/05/06 07:10:39;;;;;;;12.45;8.25;;;;;;;8.21;99.28;100267.00;5041831;28;20041;-80
2021/05/06 07:13:05;;;;;;;16.20;7.53;;;;;;;8.24;97.41;100266.84;5008357;28;20635;-79
2021/05/06 07:15:30;;;;;;;14.02;8.00;;;;;;;8.32;98.28;100269.09;5016956;28;20506;-79
2021/05/06 07:17:56;;;;;;;14.13;7.88;;;;;;;8.46;97.02;100271.72;5024431;28;20030;-83
2021/05/06 07:20:21;;;;;;;12.65;7.65;;;;;;;8.49;96.04;100263.53;5007412;28;20409;-81
2021/05/06 07:22:47;;;;;;;16.33;8.40;;;;;;;8.63;94.87;100271.56;5011639;28;20034;-80
2021/05/06 07:25:13;;;;;;;12.68;8.10;;;;;;;8.59;94.85;100259.31;5006245;28;20057;-80
2021/05/06 07:27:38;;;;;;;14.23;8.65;;;;;;;8.75;95.55;100260.06;5028710;28;20033;-80
2021/05/06 07:30:05;;;;;;;16.27;7.80;;;;;;;8.69;94.34;100262.28;5019249;28;20129;-80
2021/05/06 07:32:30;;;;;;;13.50;7.05;;;;;;;8.64;94.03;100259.88;5018451;28;20108;-79
2021/05/06 07:34:56;;;;;;;11.77;7.93;;;;;;;8.66;93.76;100260.63;5001858;28;20136;-80
2021/05/06 07:37:22;;;;;;;16.67;7.97;;;;;;;9.11;91.40;100259.50;5016626;28;20037;-80
2021/05/06 07:39:47;;;;;;;16.02;7.72;;;;;;;9.51;86.66;100259.50;5011078;28;20064;-79
2021/05/06 07:42:13;;;;;;;13.20;7.72;;;;;;;9.99;86.50;100260.69;5024492;28;20478;-80
2021/05/06 07:44:38;;;;;;;10.95;7.13;;;;;;;10.21;83.06;100252.88;5011768;28;20029;-80
2021/05/06 07:47:10;;;;;;;11.52;7.55;;;;;;;10.18;83.81;100255.81;5027202;28;20514;-80
2021/05/06 07:49:37;;;;;;;14.07;7.97;;;;;;;10.01;84.84;100256.91;5019939;28;20729;-81
2021/05/06 07:52:03;;;;;;;11.70;7.35;;;;;;;9.94;84.30;100252.09;5015869;28;20298;-81
2021/05/06 07:54:29;;;;;;;14.15;7.38;;;;;;;9.76;85.44;100254.22;5027495;28;20120;-79
2021/05/06 07:56:54;;;;;;;12.25;6.95;;;;;;;9.74;84.87;100254.34;5012363;28;20497;-80
2021/05/06 07:59:20;;;;;;;8.80;6.25;;;;;;;9.73;83.58;100257.97;5028042;28;20025;-82
2021/05/06 08:01:45;;;;;;;11.65;7.32;;;;;;;9.66;82.14;100251.31;5027233;28;20025;-79
2021/05/06 08:04:11;;;;;;;7.45;5.75;;;;;;;9.66;81.90;100256.66;5008674;28;20032;-80
2021/05/06 08:06:36;;;;;;;8.30;5.90;;;;;;;9.62;82.69;100249.81;5016364;28;20042;-81
2021/05/06 08:09:03;;;;;;;9.13;5.93;;;;;;;9.72;82.22;100261.63;5024852;28;20057;-80
2021/05/06 08:11:29;;;;;;;10.40;6.45;;;;;;;10.41;79.30;100257.72;5010344;28;20037;-81
2021/05/06 08:13:54;;;;;;;12.02;6.40;;;;;;;11.59;80.31;100249.91;5028377;28;20179;-81
2021/05/06 08:16:20;;;;;;;9.77;6.75;;;;;;;12.02;74.26;100253.75;5006684;28;20033;-81
2021/05/06 08:18:46;;;;;;;8.13;5.80;;;;;;;12.44;70.77;100252.19;5010996;28;20481;-81
2021/05/06 08:21:11;;;;;;;8.95;5.88;;;;;;;12.70;70.50;100258.19;5015665;28;20033;-83
2021/05/06 08:23:37;;;;;;;10.05;6.10;;;;;;;12.45;67.39;100262.00;5021120;28;20025;-81
2021/05/06 08:26:02;;;;;;;17.08;7.00;;;;;;;11.89;68.89;100261.03;5022568;28;20068;-81
2021/05/06 08:28:28;;;;;;;9.30;6.43;;;;;;;11.51;70.79;100268.44;5021140;28;20087;-81
2021/05/06 08:30:53;;;;;;;9.65;5.85;;;;;;;10.95;71.94;100262.75;5026846;28;20466;-80
2021/05/06 08:33:19;;;;;;;10.85;6.30;;;;;;;10.98;71.46;100265.22;5027649;28;20095;-81
2021/05/06 08:35:44;;;;;;;9.20;5.57;;;;;;;11.58;69.30;100267.00;5018161;28;20025;-80
2021/05/06 08:38:10;;;;;;;7.80;5.40;;;;;;;11.95;67.91;100257.00;4996787;28;20542;-81
2021/05/06 08:40:37;;;;;;;7.88;5.13;;;;;;;12.85;69.16;100248.84;5017842;28;20387;-80
2021/05/06 08:43:07;;;;;;;7.60;4.70;;;;;;;13.45;65.30;100255.63;5026376;28;20037;-81
2021/05/06 08:45:35;;;;;;;10.27;5.05;;;;;;;13.62;65.01;100255.06;5039064;28;20112;-81
2021/05/06 08:48:03;;;;;;;8.50;5.10;;;;;;;13.22;65.03;100252.13;5022734;28;20686;-81
2021/05/06 08:50:28;;;;;;;11.23;4.03;;;;;;;12.67;66.19;100250.34;5008430;28;20596;-81
2021/05/06 08:52:55;;;;;;;7.65;4.53;;;;;;;12.19;67.08;100238.09;5041265;28;20029;-81
2021/05/06 08:55:21;;;;;;;6.53;4.28;;;;;;;11.81;68.42;100236.56;5021969;28;20029;-80
2021/05/06 08:57:48;;;;;;;10.98;4.45;;;;;;;11.70;69.07;100234.66;5019990;28;20094;-80
2021/05/06 09:00:15;;;;;;;5.82;3.72;;;;;;;12.36;66.91;100232.25;5024131;28;20033;-80
2021/05/06 09:02:47;;;;;;;9.20;4.65;;;;;;;12.68;67.28;100232.34;5020957;28;20030;-82
2021/05/06 09:05:13;;;;;;;8.68;4.53;;;;;;;13.01;67.73;100231.47;5019439;28;20025;-81
2021/05/06 09:07:45;;;;;;;10.65;4.78;;;;;;;13.19;65.80;100240.75;5023557;28;20465;-80
2021/05/06 09:10:32;;;;;;;7.43;3.83;;;;;;;12.98;64.52;100238.81;5027336;28;20733;-82
2021/05/06 09:12:57;;;;;;;6.07;3.35;;;;;;;13.38;63.27;100240.09;5001321;28;20138;-82
2021/05/06 09:15:23;;;;;;;10.35;3.80;;;;;;;13.91;62.45;100235.53;5016372;28;20121;-81
2021/05/06 09:17:48;;;;;;;12.25;3.30;;;;;;;14.27;59.51;100245.84;5020686;28;20076;-82
2021/05/06 09:20:20;;;;;;;4.60;2.80;;;;;;;13.77;56.67;100244.78;5009099;28;20513;-82
2021/05/06 09:22:55;;;;;;;4.68;2.85;;;;;;;13.08;57.93;100243.44;5009770;28;20037;-81
2021/05/06 09:25:34;;;;;;;5.53;2.42;;;;;;;12.69;61.47;100237.63;5025302;28;20030;-81
2021/05/06 09:28:29;;;;;;;7.15;3.15;;;;;;;12.55;60.48;100237.88;5028019;28;20033;-81
2021/05/06 09:31:25;;;;;;;5.70;2.65;;;;;;;12.21;60.74;100228.09;5018732;28;20131;-81
2021/05/06 09:33:52;;;;;;;4.90;2.70;;;;;;;12.33;61.77;100229.81;5026217;28;20227;-81
2021/05/06 09:36:24;;;;;;;4.00;2.00;;;;;;;13.25;60.39;100229.47;5015238;28;20030;-82
2021/05/06 09:38:52;;;;;;;4.25;2.42;;;;;;;13.63;58.13;100229.81;5028688;28;20040;-81
2021/05/06 09:41:29;;;;;;;6.28;2.30;;;;;;;14.07;58.01;100222.44;5025418;28;20038;-81
2021/05/06 09:44:16;;;;;;;4.70;2.40;;;;;;;14.65;58.31;100225.44;5013652;28;20021;-81
2021/05/06 09:46:44;;;;;;;3.88;2.63;;;;;;;14.89;50.50;100221.41;5026906;28;20426;-82
2021/05/06 09:49:10;;;;;;;2.67;1.70;;;;;;;15.10;51.15;100215.91;5029524;28;20149;-82
2021/05/06 09:51:37;;;;;;;5.47;2.20;;;;;;;14.96;52.53;100219.00;5026803;28;20057;-83
2021/05/06 09:54:06;;;;;;;6.20;2.47;;;;;;;14.90;52.35;100217.72;5028018;28;20072;-82
2021/05/06 09:56:32;;;;;;;3.03;1.92;;;;;;;15.22;52.71;100224.75;5026705;28;20041;-81
2021/05/06 09:58:58;;;;;;;6.00;2.45;;;;;;;15.45;50.21;100214.50;5013503;28;20436;-82
2021/05/06 10:01:32;;;;;;;5.63;1.90;;;;;;;15.83;47.92;100216.38;5010033;28;20022;-83
2021/05/06 10:04:24;;;;;;;7.40;2.50;;;;;;;15.81;48.92;100213.81;5027162;28;20494;-83
2021/05/06 10:07:12;;;;;;;5.30;2.50;;;;;;;15.69;46.44;100214.97;5026802;28;20033;-84
2021/05/06 10:09:58;;;;;;;4.18;2.03;;;;;;;15.80;45.29;100211.28;5027473;28;20044;-83
2021/05/06 10:12:26;;;;;;;4.75;1.92;;;;;;;15.46;45.85;100208.09;5010789;28;20556;-83
2021/05/06 10:14:53;;;;;;;3.15;1.85;;;;;;;15.37;46.65;100202.53;5012869;28;20030;-82
2021/05/06 10:17:20;;;;;;;7.07;2.42;;;;;;;15.19;49.04;100198.81;5013301;28;20091;-82
2021/05/06 10:19:46;;;;;;;3.65;2.10;;;;;;;15.08;50.90;100196.25;5025308;28;20718;-83
2021/05/06 10:22:16;;;;;;;5.70;2.15;;;;;;;14.87;49.98;100196.34;5018618;28;20052;-83
2021/05/06 10:24:47;;;;;;;7.70;2.97;;;;;;;14.42;51.73;100195.94;5025527;28;20025;-83
2021/05/06 10:27:15;;;;;;;5.88;2.90;;;;;;;14.29;50.87;100180.91;5011763;28;20037;-83
2021/05/06 10:29:40;;;;;;;6.88;2.50;;;;;;;14.35;51.11;100177.69;5012872;28;20025;-83
2021/05/06 10:32:15;;;;;;;3.70;2.22;;;;;;;14.26;51.52;100168.53;5015123;28;20440;-84
2021/05/06 10:34:43;;;;;;;5.43;2.15;;;;;;;13.84;52.20;100183.09;5027219;28;20124;-81
2021/05/06 10:37:10;;;;;;;4.70;2.30;;;;;;;13.78;52.33;100179.94;5024008;28;20029;-84
2021/05/06 10:39:47;;;;;;;3.70;2.08;;;;;;;13.52;53.44;100181.31;5026790;28;20504;-83
2021/05/06 10:42:25;;;;;;;4.30;2.38;;;;;;;13.45;56.44;100177.44;5029360;28;20040;-83
2021/05/06 10:44:50;;;;;;;2.85;2.38;;;;;;;13.75;55.98;100172.13;5027606;28;20049;-82
2021/05/06 10:47:18;;;;;;;4.03;2.83;;;;;;;13.68;55.17;100162.84;5017460;28;20426;-83
2021/05/06 10:49:43;;;;;;;4.97;2.22;;;;;;;13.78;55.47;100173.69;5014595;28;20040;-82
2021/05/06 10:52:10;;;;;;;8.70;2.88;;;;;;;14.09;52.18;100159.22;5028401;28;20045;-81
2021/05/06 10:54:40;;;;;;;19.35;2.50;;;;;;;14.61;52.88;100145.69;5029775;28;20030;-83
2021/05/06 10:57:09;;;;;;;6.28;2.40;;;;;;;14.89;50.22;100151.13;5008655;28;20065;-82
2021/05/06 10:59:40;;;;;;;5.00;2.60;;;;;;;14.82;49.50;100155.38;5032784;28;20105;-84
2021/05/06 11:02:08;;;;;;;4.00;2.35;;;;;;;14.52;50.52;100148.22;5032337;28;20045;-83
2021/05/06 11:04:38;;;;;;;9.00;2.40;;;;;;;14.42;47.98;100151.88;5026747;28;20037;-83
2021/05/06 11:07:12;;;;;;;6.70;2.42;;;;;;;14.28;48.23;100144.97;5027857;28;20048;-83
2021/05/06 11:09:46;;;;;;;4.85;2.50;;;;;;;14.23;47.04;100144.53;5012992;28;20053;-83
2021/05/06 11:12:15;;;;;;;6.93;2.75;;;;;;;14.01;48.32;100145.56;5027992;28;20048;-83
2021/05/06 11:15:01;;;;;;;8.80;2.45;;;;;;;13.90;49.47;100134.84;5011102;28;20038;-81
2021/05/06 11:17:39;;;;;;;5.60;2.35;;;;;;;13.70;52.37;100138.44;5016858;28;20563;-82
2021/05/06 11:20:14;;;;;;;5.25;2.47;;;;;;;13.63;53.41;100132.72;5041743;28;20053;-83
2021/05/06 11:22:51;;;;;;;7.15;2.80;;;;;;;13.67;56.35;100119.81;5028312;28;20121;-82
2021/05/06 11:25:38;;;;;;;8.18;2.55;;;;;;;13.92;59.14;100119.38;5038712;28;20030;-84
2021/05/06 11:28:05;;;;;;;4.65;2.30;;;;;;;13.77;48.49;100118.88;5024862;28;20458;-84
2021/05/06 11:30:43;;;;;;;4.95;2.35;;;;;;;13.71;51.54;100111.31;5015493;28;20033;-84
2021/05/06 11:33:21;;;;;;;3.13;2.08;;;;;;;13.83;55.25;100100.44;5012310;28;20029;-84
2021/05/06 11:36:16;;;;;;;8.52;2.83;;;;;;;13.97;50.38;100102.78;5014017;28;20037;-84
2021/05/06 11:38:54;;;;;;;4.13;2.38;;;;;;;14.09;50.23;100104.41;5013635;28;20076;-83
2021/05/06 11:41:27;;;;;;;3.53;2.22;;;;;;;13.97;52.27;100095.56;5012044;28;20543;-84
2021/05/06 11:44:07;;;;;;;2.95;2.38;;;;;;;13.74;54.95;100097.59;5029520;28;20038;-84
2021/05/06 11:46:37;;;;;;;6.35;2.20;;;;;;;13.76;55.95;100092.88;5011672;28;20113;-85
2021/05/06 11:49:04;;;;;;;3.63;2.20;;;;;;;14.02;53.49;100084.34;5031469;28;20068;-84
2021/05/06 11:51:34;;;;;;;6.93;2.22;;;;;;;14.05;53.46;100084.09;5013075;28;20025;-84
2021/05/06 11:54:20;;;;;;;4.05;2.00;;;;;;;13.91;48.44;100073.66;5029475;28;20536;-83
2021/05/06 11:56:53;;;;;;;6.82;2.00;;;;;;;14.01;47.64;100077.25;5012072;28;20517;-83
2021/05/06 11:59:24;;;;;;;8.13;2.20;;;;;;;14.06;48.94;100072.31;5025512;28;20044;-83
2021/05/06 12:01:51;;;;;;;8.10;3.65;;;;;;;14.19;48.89;100062.13;5029045;28;20048;-84
2021/05/06 12:04:34;;;;;;;7.85;2.65;;;;;;;14.05;47.19;100062.50;5012975;28;20116;-84
2021/05/06 12:07:22;;;;;;;5.18;2.88;;;;;;;14.33;46.98;100067.13;5013298;28;20041;-83
2021/05/06 12:09:51;;;;;;;7.00;2.53;;;;;;;14.35;48.17;100057.03;5012982;28;20079;-84
2021/05/06 12:12:21;;;;;;;4.72;2.15;;;;;;;14.53;47.97;100046.44;5028126;28;20033;-82
2021/05/06 12:14:46;;;;;;;4.72;2.35;;;;;;;14.32;46.42;100051.91;5014484;28;20025;-83
2021/05/06 12:17:18;;;;;;;5.13;2.55;;;;;;;14.32;47.00;100057.31;5009977;28;20036;-84
2021/05/06 12:19:46;;;;;;;6.32;2.42;;;;;;;14.43;48.50;100046.44;5023870;28;20029;-84
2021/05/06 12:22:12;;;;;;;3.55;1.85;;;;;;;14.47;43.96;100049.72;5044244;28;20033;-84
2021/05/06 12:24:41;;;;;;;6.07;2.30;;;;;;;14.56;44.09;100040.78;5029505;28;20446;-83
2021/05/06 12:27:27;;;;;;;4.90;2.13;;;;;;;14.71;44.90;100039.34;5024922;28;20060;-83
2021/05/06 12:29:55;;;;;;;8.07;1.73;;;;;;;14.89;39.98;100039.50;5020566;28;20039;-84
2021/05/06 12:32:26;;;;;;;4.28;2.30;;;;;;;14.86;38.19;100037.94;5009461;28;20044;-83
2021/05/06 12:34:53;;;;;;;3.47;1.73;;;;;;;14.85;42.03;100021.88;5027506;28;20051;-82
2021/05/06 12:37:25;;;;;;;4.90;1.95;;;;;;;14.86;40.13;100029.84;5042528;28;20120;-83
2021/05/06 12:39:51;;;;;;;2.85;1.50;;;;;;;14.98;42.06;100022.44;5037746;28;20057;-84
2021/05/06 12:42:27;;;;;;;7.40;2.05;;;;;;;15.22;41.11;100027.38;5015376;28;20559;-83
2021/05/06 12:44:53;;;;;;;5.18;1.80;;;;;;;15.26;42.17;100024.22;5029672;28;20116;-83
2021/05/06 12:47:26;;;;;;;3.75;1.70;;;;;;;15.31;38.98;100021.94;5031259;28;20068;-83
2021/05/06 12:50:07;;;;;;;3.13;1.95;;;;;;;15.41;40.28;100013.81;5015588;28;20036;-83
2021/05/06 12:52:39;;;;;;;4.60;2.40;;;;;;;15.39;40.08;100019.38;5030419;28;20045;-83
2021/05/06 12:55:25;;;;;;;4.03;1.80;;;;;;;15.27;40.49;100004.31;5033782;28;20033;-83
2021/05/06 12:58:14;;;;;;;3.15;1.70;;;;;;;15.53;40.81;100003.72;5033722;28;20176;-82
2021/05/06 13:01:02;;;;;;;3.10;1.55;;;;;;;15.87;40.22;100002.13;5011512;28;20037;-84
2021/05/06 13:03:30;;;;;;;3.97;1.80;;;;;;;15.90;40.06;99996.44;5016964;28;20029;-82
2021/05/06 13:06:02;;;;;;;3.97;1.60;;;;;;;16.09;37.83;99998.19;5006166;28;20069;-81
2021/05/06 13:08:35;;;;;;;4.88;1.75;;;;;;;15.94;37.53;99987.00;5008335;28;20045;-81
2021/05/06 13:11:02;;;;;;;6.18;2.10;;;;;;;15.76;37.18;99994.22;5019199;28;20643;-81
2021/05/06 13:13:55;;;;;;;3.83;1.80;;;;;;;15.64;40.16;99984.59;5014395;28;20712;-81
2021/05/06 13:16:36;;;;;;;5.10;1.77;;;;;;;15.54;35.50;99981.06;5016794;28;20049;-82
2021/05/06 13:19:06;;;;;;;3.83;1.88;;;;;;;15.65;37.34;99975.47;5008799;28;20411;-83
2021/05/06 13:21:33;;;;;;;3.25;2.03;;;;;;;15.68;35.72;99970.59;5014892;28;20038;-82
2021/05/06 13:24:04;;;;;;;2.92;1.90;;;;;;;15.64;37.18;99971.91;5020370;28;20038;-83
2021/05/06 13:26:40;;;;;;;5.72;1.75;;;;;;;15.73;36.05;99971.03;5014831;28;20060;-83
2021/05/06 13:29:15;;;;;;;2.58;1.90;;;;;;;15.79;35.21;99966.88;5020875;28;20038;-83
2021/05/06 13:31:43;;;;;;;5.43;1.75;;;;;;;15.83;35.55;99968.25;5032714;28;20041;-83
2021/05/06 13:34:14;;;;;;;2.88;1.65;;;;;;;15.94;37.54;99970.75;5004500;28;20100;-83
2021/05/06 13:36:45;;;;;;;4.45;1.55;;;;;;;16.10;37.26;99962.84;5011112;28;20026;-83
2021/05/06 13:39:15;;;;;;;7.97;1.75;;;;;;;16.13;37.25;99962.53;5031636;28;20033;-83
2021/05/06 13:41:44;;;;;;;3.80;1.35;;;;;;;16.28;35.45;99962.00;5031896;28;20034;-84
2021/05/06 13:44:13;;;;;;;2.05;1.30;;;;;;;16.14;36.42;99961.53;5027835;28;20037;-83
2021/05/06 13:46:53;;;;;;;3.45;1.70;;;;;;;16.25;35.97;99956.88;5029784;28;20075;-84
2021/05/06 13:49:31;;;;;;;5.90;1.52;;;;;;;16.08;35.77;99956.72;5028102;28;20045;-83
2021/05/06 13:51:58;;;;;;;3.55;1.70;;;;;;;16.10;35.32;99953.88;5031370;28;20108;-83
2021/05/06 13:54:26;;;;;;;5.88;1.70;;;;;;;15.90;34.52;99942.31;5006915;28;20569;-84
2021/05/06 13:56:51;;;;;;;4.20;1.73;;;;;;;15.80;34.51;99946.06;5025507;28;20046;-83
2021/05/06 13:59:17;;;;;;;1.77;1.30;;;;;;;15.78;34.29;99947.06;5031422;28;20034;-83
2021/05/06 14:01:43;;;;;;;6.88;1.60;;;;;;;15.68;35.02;99934.56;5020842;28;20022;-83
2021/05/06 14:04:08;;;;;;;3.78;1.60;;;;;;;15.67;37.53;99930.19;5035558;28;20655;-84
2021/05/06 14:06:35;;;;;;;5.82;1.63;;;;;;;15.55;36.92;99924.13;5021313;28;20033;-83
2021/05/06 14:09:01;;;;;;;6.18;1.60;;;;;;;15.54;36.25;99935.09;5036558;28;20026;-83
2021/05/06 14:11:27;;;;;;;3.22;1.30;;;;;;;15.53;35.79;99927.97;5031730;28;20025;-82
2021/05/06 14:13:57;;;;;;;3.83;1.63;;;;;;;15.47;36.08;99929.41;5037775;28;20038;-83
2021/05/06 14:16:23;;;;;;;3.80;1.40;;;;;;;15.30;33.94;99922.06;5032640;28;20088;-84
2021/05/06 14:18:50;;;;;;;1.83;1.48;;;;;;;15.11;34.08;99924.84;5018384;28;20025;-83
2021/05/06 14:21:20;;;;;;;2.42;1.42;;;;;;;15.04;33.01;99921.88;5016935;28;20072;-84
2021/05/06 14:23:48;;;;;;;3.53;1.40;;;;;;;14.80;33.40;99925.06;5016447;28;20470;-83
2021/05/06 14:26:14;;;;;;;4.15;2.00;;;;;;;14.73;33.82;99918.53;5016082;28;20493;-83
2021/05/06 14:28:41;;;;;;;6.38;1.90;;;;;;;14.39;34.92;99923.50;5044395;28;20065;-85
2021/05/06 14:31:07;;;;;;;28.00;9.45;;;;;;;14.46;36.87;99918.38;5031014;28;20079;-83
2021/05/06 14:33:32;;;;;;;79.63;23.95;;;;;;;14.63;36.98;99914.13;5029606;28;20828;-83
2021/05/06 14:35:58;;;;;;;15.10;5.57;;;;;;;14.69;36.79;99922.47;5031973;28;20040;-83
2021/05/06 14:38:23;;;;;;;63.33;20.50;;;;;;;14.66;37.86;99913.81;5029833;28;20013;-83
2021/05/06 14:40:49;;;;;;;27.38;10.13;;;;;;;14.76;37.14;99918.22;5021677;28;20041;-82
2021/05/06 14:43:14;;;;;;;5.03;2.85;;;;;;;14.56;36.45;99920.06;5034732;28;20033;-84
2021/05/06 14:45:40;;;;;;;17.92;6.15;;;;;;;14.63;37.41;99923.06;5020164;28;20033;-84
2021/05/06 14:48:09;;;;;;;20.92;7.90;;;;;;;14.57;37.34;99924.50;5018239;28;20021;-84
2021/05/06 14:50:35;;;;;;;60.05;17.33;;;;;;;14.55;38.81;99926.50;5022221;28;20034;-83
2021/05/06 14:53:00;;;;;;;12.88;4.47;;;;;;;14.57;39.25;99924.50;5023041;28;20030;-84
2021/05/06 14:55:26;;;;;;;10.50;5.20;;;;;;;14.43;39.88;99911.44;5020626;28;20040;-84
2021/05/06 14:57:52;;;;;;;32.45;11.48;;;;;;;14.60;38.26;99911.69;5031380;28;20486;-84
2021/05/06 15:00:22;;;;;;;8.07;2.38;;;;;;;14.50;35.25;99917.94;5034817;28;20060;-85